Terminal Aerodrome Forecast
Issued by NWS

Home | Current Version | Previous Version | Text Only | Print | Product List | Glossary On
Versions: 1 2 3 4 5 6 7 8 9 10 11 12 13 14 15 16 17 18 19 20
738
FTUS42 KGSP 241410 AAB
TAFGMU
TAF AMD
KGMU 241410Z 2414/2512 22006KT 2SM BR BKN002
      TEMPO 2414/2415 6SM BR BKN005
     FM241500 22007KT P6SM BKN030
     FM241600 22010KT P6SM BKN040
     FM242200 20005KT P6SM BKN100
     FM251000 20008KT P6SM VCSH BKN040=

USA.gov is the U.S. government's official web portal to all federal, state and local government web resources and services.